• Join FlightAware (Why Join?)
  • Login
  • US Flag 
06:53PM EDT


 

Airport Tracker/Info


-or-


 

Live Flight TrackerFlight Track Log ✈ RAX1073 ✈ 04-May-2013 ✈ KMCI - KPTK

Flight Track Log - Related Links

Times and Time Zones

All times are in EDT time to prevent confusion due to time zone crossing. See the RAX1073 flight status page for this flight to view local times or setup timezone preferences in your user account.

Time Position Orientation Groundspeed Altitude Reporting Facility
EDT Latitude Longitude Course Direction KTS MPH feet Rate Location/Type
03:54AM 39.3667 -94.7000 14° North 214 246 5,500  Level Kansas City TRACON
03:55AM 39.3872 -94.6708 48° Northeast 227 261 7,300 3,840 Climbing Kansas City Center
03:56AM 39.4292 -94.6181 44° Northeast 223 257 11,500 3,780 Climbing Kansas City Center
03:57AM 39.4872 -94.5497 42° Northeast 252 290 14,900 2,940 Climbing Kansas City Center
03:58AM 39.5378 -94.4775 48° Northeast 283 326 17,500 2,640 Climbing Kansas City Center
03:59AM 39.5969 -94.4064 43° Northeast 300 345 20,300 3,000 Climbing Kansas City Center
04:00AM 39.6381 -94.2989 64° Northeast 295 339 23,500 2,520 Climbing Kansas City Center
04:01AM 39.6681 -94.1983 69° East 310 357 25,500 1,860 Climbing Kansas City Center
04:02AM 39.7036 -94.0942 66° East 330 380 27,300 2,100 Climbing Kansas City Center
04:03AM 39.7500 -93.9725 64° Northeast 337 388 29,700 2,040 Climbing Kansas City Center
04:04AM 39.7881 -93.8658 65° Northeast 339 390 31,500 1,500 Climbing Kansas City Center
04:05AM 39.8219 -93.7633 67° East 358 412 32,800 1,260 Climbing Kansas City Center
04:06AM 39.8608 -93.6442 67° East 362 417 34,100 1,380 Climbing Kansas City Center
04:07AM 39.9044 -93.4969 69° East 368 423 35,700 1,380 Climbing Kansas City Center
04:08AM 39.9461 -93.3708 67° East 379 436 36,900 1,020 Climbing Kansas City Center
04:09AM 39.9928 -93.2467 64° Northeast 398 458 37,800 780 Climbing Kansas City Center
04:10AM 40.0283 -93.1133 71° East 397 457 38,500 600 Climbing Kansas City Center
04:11AM 40.0750 -92.9875 64° Northeast 393 452 39,100 660 Climbing Kansas City Center
04:12AM 40.1125 -92.8583 69° East 395 455 39,900 720 Climbing Kansas City Center
04:13AM 40.1547 -92.7322 66° East 396 456 40,600 540 Climbing Kansas City Center
04:14AM 40.2006 -92.5828 68° East 393 452 41,000 180 Climbing Kansas City Center
04:15AM 40.2428 -92.4547 67° East 395 455 41,000  Level Kansas City Center
04:16AM 40.2847 -92.3283 66° East 414 476 41,000  Level Kansas City Center
04:17AM 40.3272 -92.1889 68° East 417 480 41,000  Level Kansas City Center
04:18AM 40.3806 -92.0206 67° East 419 482 41,000  Level Kansas City Center
04:19AM 40.4256 -91.8819 67° East 418 481 41,000  Level Kansas City Center
04:20AM 40.4675 -91.7406 69° East 418 481 41,000  Level Kansas City Center
04:21AM 40.5125 -91.6000 67° East 419 482 41,000  Level Kansas City Center
04:22AM 40.5539 -91.4581 69° East 420 483 41,000  Level Kansas City Center
04:23AM 40.5914 -91.3444 66° East 422 486 41,000  Level Chicago Center
04:24AM 40.6342 -91.1939 69° East 418 481 41,000  Level Chicago Center
04:25AM 40.6792 -91.0506 67° East 422 486 41,000  Level Chicago Center
04:26AM 40.7236 -90.9083 68° East 420 483 41,000  Level Chicago Center
04:27AM 40.7644 -90.7633 70° East 421 484 41,000  Level Chicago Center
04:28AM 40.8117 -90.6189 67° East 425 489 41,000  Level Chicago Center
04:29AM 40.8514 -90.4767 70° East 416 479 41,000  Level Chicago Center
04:30AM 40.8942 -90.3294 69° East 424 488 41,000  Level Chicago Center
04:31AM 40.9386 -90.1872 67° East 426 490 41,000  Level Chicago Center
04:32AM 40.9767 -90.0400 71° East 426 490 41,000  Level Chicago Center
04:33AM 41.0250 -89.8856 67° East 431 496 41,000  Level Chicago Center
04:34AM 41.0686 -89.7378 69° East 428 493 41,000  Level Chicago Center
04:35AM 41.1078 -89.5881 71° East 426 490 41,000  Level Chicago Center
04:36AM 41.1539 -89.4431 67° East 426 490 41,000  Level Chicago Center
04:37AM 41.1936 -89.2936 71° East 428 493 41,000  Level Chicago Center
04:38AM 41.2328 -89.1639 68° East 427 491 41,000  Level Chicago Center
04:39AM 41.2806 -88.9861 70° East 427 491 41,000  Level Chicago Center
04:40AM 41.3197 -88.8367 71° East 429 494 41,000  Level Chicago Center
04:41AM 41.3636 -88.6889 68° East 431 496 41,000  Level Chicago Center
04:42AM 41.4028 -88.5378 71° East 434 499 41,000  Level Chicago Center
04:43AM 41.4444 -88.3881 70° East 432 497 41,000  Level Chicago Center
04:44AM 41.4864 -88.2369 70° East 433 498 41,000  Level Chicago Center
04:45AM 41.5217 -88.0956 72° East 436 502 41,000  Level Chicago Center
04:46AM 41.5622 -87.9600 68° East 432 497 41,000  Level Chicago Center
04:47AM 41.5997 -87.8069 72° East 432 497 41,000  Level Chicago Center
04:48AM 41.6411 -87.6578 70° East 430 495 41,000  Level Chicago Center
04:49AM 41.6811 -87.5072 70° East 430 495 41,000  Level Chicago Center
04:50AM 41.7189 -87.3550 72° East 430 495 41,000  Level Chicago Center
04:51AM 41.7606 -87.2067 69° East 425 489 41,000  Level Chicago Center
04:52AM 41.8036 -87.0272 72° East 419 482 41,000  Level Chicago Center
04:53AM 41.8433 -86.8786 70° East 421 484 41,000  Level Chicago Center
04:54AM 41.8828 -86.7311 70° East 417 480 41,000  Level Chicago Center
04:55AM 41.9128 -86.5989 73° East 421 484 41,000  Level Chicago Center
04:56AM 41.9536 -86.4497 70° East 424 488 41,000  Level Chicago Center
04:57AM 41.9897 -86.2967 72° East 427 491 41,000 -600 Level Chicago Center
04:58AM 42.0292 -86.1444 71° East 431 496 39,900 -1,620 Descending Chicago Center
04:59AM 42.0661 -85.9950 72° East 424 488 37,800 -2,640 Descending Chicago Center
05:00AM 42.1056 -85.8253 73° East 428 493 34,700 -3,120 Descending Chicago Center
05:01AM 42.1458 -85.6708 71° East 437 503 31,600 -3,060 Descending Chicago Center
05:02AM 42.1839 -85.5153 72° East 439 505 28,600 -3,120 Descending Chicago Center
05:03AM 42.2186 -85.3619 73° East 432 497 25,400 -3,300 Descending Chicago Center
05:03AM 42.2433 -85.2792 68° East 425 489 23,700 -3,240 Descending Cleveland Center
05:04AM 42.2764 -85.1328 73° East 415 478 20,600 -2,400 Descending Cleveland Center
05:05AM 42.3089 -84.9919 73° East 401 461 19,000 -840 Descending Cleveland Center
05:06AM 42.3392 -84.8564 73° East 384 442 19,000  Level Cleveland Center
05:07AM 42.3756 -84.7125 71° East 384 442 19,000  Level Cleveland Center
05:08AM 42.3886 -84.6450 75° East 407 468 19,000  Level Chicago Center
05:08AM 42.4036 -84.5653 76° East 394 453 19,000 -660 Level Cleveland Center
05:09AM 42.4378 -84.4267 71° East 394 453 18,100 -1,740 Descending Cleveland Center
05:10AM 42.4692 -84.2961 72° East 383 441 15,600 -2,700 Descending Cleveland Center
05:11AM 42.4939 -84.1736 75° East 352 405 12,700 -2,760 Descending Cleveland Center
05:12AM 42.5178 -84.0681 73° East 319 367 10,100 -2,640 Descending Cleveland Center
05:13AM 42.5269 -84.0431 64° Northeast 290 334 9,500 -1,500 Descending Cleveland Center
05:13AM 42.5481 -83.9656 70° East 284 327 8,600 840 Descending Cleveland Center
05:14AM 42.5758 -83.8681 69° East 284 327 11,000 1,200 Climbing Cleveland Center
05:15AM 42.6058 -83.7711 67° East 284 327 11,000  Level Cleveland Center
05:16AM 42.6333 -83.6736 69° East 284 327 11,000  Level Cleveland Center
05:17AM 42.6564 -83.5956 68° East 284 327 11,000  Level Cleveland Center
05:20AM 42.6500 -83.4480 90° East  Level FlightAware Approximate
05:27AM 42.6500 -83.4167 90° East  Level FlightAware Approximate
05:28AM 42.6656 -83.4205 90° East  Level Estimated